Time;durP1;ratioP1;P1;durP2;ratioP2;P2;SDS_P1;SDS_P2;PMS_P1;PMS_P2;Temp;Humidity;BMP_temperature;BMP_pressure;BME280_temperature;BME280_humidity;BME280_pressure;Samples;Min_cycle;Max_cycle;Signal;HPM_P1;HPM_P2
2022/06/03 00:01:20;;;;;;;11.07;6.90;;;;;;;;;;6270802;28;20256;-77
2022/06/03 00:04:29;;;;;;;10.18;5.78;;;;;;;;;;6269156;28;20108;-77
2022/06/03 00:07:35;;;;;;;8.30;5.18;;;;;;;;;;6269487;28;20085;-76
2022/06/03 00:10:38;;;;;;;11.82;5.72;;;;;;;;;;6261610;28;20143;-77
2022/06/03 00:13:55;;;;;;;9.07;4.78;;;;;;;;;;6269000;28;20025;-77
2022/06/03 00:17:08;;;;;;;9.80;5.20;;;;;;;;;;6269764;28;20029;-77
2022/06/03 00:20:14;;;;;;;8.60;5.65;;;;;;;;;;6268115;28;20064;-78
2022/06/03 00:23:17;;;;;;;11.82;5.53;;;;;;;;;;6269142;28;20047;-78
2022/06/03 00:26:17;;;;;;;11.50;5.65;;;;;;;;;;6269404;28;20025;-77
2022/06/03 00:29:32;;;;;;;7.50;4.83;;;;;;;;;;6271056;28;20039;-77
2022/06/03 00:32:47;;;;;;;8.98;4.97;;;;;;;;;;6268628;28;21062;-77
2022/06/03 00:36:00;;;;;;;9.65;6.05;;;;;;;;;;6268162;28;20105;-78
2022/06/03 00:39:06;;;;;;;17.13;6.55;;;;;;;;;;6268694;28;20124;-78
2022/06/03 00:42:25;;;;;;;12.18;5.55;;;;;;;;;;6270074;28;20071;-78
2022/06/03 00:45:35;;;;;;;13.50;5.97;;;;;;;;;;6268628;28;20102;-78
2022/06/03 00:48:39;;;;;;;9.23;5.28;;;;;;;;;;6269606;28;20075;-78
2022/06/03 00:51:58;;;;;;;10.02;5.50;;;;;;;;;;6258498;28;20066;-77
2022/06/03 00:55:04;;;;;;;12.60;5.85;;;;;;;;;;6260673;28;20067;-78
2022/06/03 00:58:07;;;;;;;11.20;6.10;;;;;;;;;;6267977;28;20024;-78
2022/06/03 01:01:14;;;;;;;12.02;6.00;;;;;;;;;;6270263;28;20487;-78
2022/06/03 01:04:33;;;;;;;11.07;6.35;;;;;;;;;;6268060;28;20017;-78
2022/06/03 01:07:42;;;;;;;10.80;5.78;;;;;;;;;;6270655;28;20013;-78
2022/06/03 01:10:58;;;;;;;9.35;5.28;;;;;;;;;;6261477;28;20021;-77
2022/06/03 01:14:04;;;;;;;11.30;5.65;;;;;;;;;;6270560;28;20032;-78
2022/06/03 01:17:23;;;;;;;9.48;5.20;;;;;;;;;;6267731;28;20021;-78
2022/06/03 01:20:23;;;;;;;8.10;5.18;;;;;;;;;;6264358;28;20043;-78
2022/06/03 01:23:26;;;;;;;6.73;4.03;;;;;;;;;;6268709;28;20021;-77
2022/06/03 01:26:31;;;;;;;9.75;4.78;;;;;;;;;;6263777;28;20288;-77
2022/06/03 01:29:50;;;;;;;8.90;5.43;;;;;;;;;;6263561;28;20104;-78
2022/06/03 01:33:10;;;;;;;10.52;5.97;;;;;;;;;;6263786;28;20044;-77
2022/06/03 01:36:25;;;;;;;10.23;5.18;;;;;;;;;;6269446;28;20024;-77
2022/06/03 01:39:39;;;;;;;10.63;5.80;;;;;;;;;;6267644;28;20017;-77
2022/06/03 01:42:42;;;;;;;11.63;5.30;;;;;;;;;;6282229;28;20457;-78
2022/06/03 01:45:55;;;;;;;10.55;5.45;;;;;;;;;;6268674;28;20440;-78
2022/06/03 01:49:14;;;;;;;10.98;5.28;;;;;;;;;;6267496;28;20021;-77
2022/06/03 01:52:14;;;;;;;8.63;5.40;;;;;;;;;;6269480;28;20092;-78
2022/06/03 01:55:38;;;;;;;9.37;4.70;;;;;;;;;;6269782;28;20025;-78
2022/06/03 01:58:56;;;;;;;10.50;4.90;;;;;;;;;;6261117;28;20287;-78
2022/06/03 02:02:09;;;;;;;8.27;3.65;;;;;;;;;;6265094;28;20037;-78
2022/06/03 02:05:09;;;;;;;;;;;;;;;;;;6264562;28;20122;-78
2022/06/03 02:08:15;;;;;;;9.23;4.47;;;;;;;;;;6266456;28;19904;-78
2022/06/03 02:11:34;;;;;;;9.60;4.45;;;;;;;;;;6266859;28;20069;-77
2022/06/03 02:14:43;;;;;;;9.32;4.80;;;;;;;;;;6266070;28;20023;-78
2022/06/03 02:17:52;;;;;;;9.82;5.55;;;;;;;;;;6261932;28;20537;-78
2022/06/03 02:21:15;;;;;;;10.18;5.70;;;;;;;;;;6262425;28;20046;-78
2022/06/03 02:24:34;;;;;;;10.13;5.60;;;;;;;;;;6260936;28;20029;-78
2022/06/03 02:27:43;;;;;;;9.70;4.97;;;;;;;;;;6269002;28;20028;-78
2022/06/03 02:31:05;;;;;;;11.73;5.43;;;;;;;;;;6271096;28;20469;-78
2022/06/03 02:34:05;;;;;;;7.22;4.93;;;;;;;;;;6264594;28;20362;-78
2022/06/03 02:37:18;;;;;;;8.17;5.03;;;;;;;;;;6270728;28;20128;-78
2022/06/03 02:40:18;;;;;;;;;;;;;;;;;;6263264;28;20623;-78
2022/06/03 02:43:34;;;;;;;9.85;5.32;;;;;;;;;;6275948;28;20288;-79
2022/06/03 02:47:05;;;;;;;9.55;5.25;;;;;;;;;;6272980;28;20017;-78
2022/06/03 02:50:15;;;;;;;10.55;5.35;;;;;;;;;;6239008;28;20055;-78
2022/06/03 02:53:15;;;;;;;7.00;3.85;;;;;;;;;;6278107;28;20556;-78
2022/06/03 02:56:34;;;;;;;12.50;4.78;;;;;;;;;;6273751;28;20028;-78
2022/06/03 02:59:37;;;;;;;6.95;3.33;;;;;;;;;;6279456;28;20051;-78
2022/06/03 03:02:56;;;;;;;6.65;3.85;;;;;;;;;;6274818;28;20088;-79
2022/06/03 03:06:14;;;;;;;6.28;4.28;;;;;;;;;;6274418;28;20027;-77
2022/06/03 03:09:23;;;;;;;7.25;4.90;;;;;;;;;;6275277;28;20043;-79
2022/06/03 03:12:42;;;;;;;7.75;5.07;;;;;;;;;;6274410;28;20013;-78
2022/06/03 03:15:49;;;;;;;9.43;4.40;;;;;;;;;;6286029;28;20704;-78
2022/06/03 03:18:55;;;;;;;8.00;4.97;;;;;;;;;;6271522;28;20008;-78
2022/06/03 03:21:58;;;;;;;8.40;4.65;;;;;;;;;;6275270;28;20024;-78
2022/06/03 03:25:17;;;;;;;10.75;5.38;;;;;;;;;;6276180;28;20025;-78
2022/06/03 03:28:23;;;;;;;7.07;4.60;;;;;;;;;;6272174;28;20024;-77
2022/06/03 03:31:32;;;;;;;7.05;3.97;;;;;;;;;;6271214;28;20016;-78
2022/06/03 03:34:45;;;;;;;10.52;4.63;;;;;;;;;;6267379;28;20040;-78
2022/06/03 03:37:45;;;;;;;;;;;;;;;;;;6267146;28;20056;-78
2022/06/03 03:40:45;;;;;;;8.10;4.43;;;;;;;;;;6273025;28;19978;-78
2022/06/03 03:43:48;;;;;;;7.87;4.37;;;;;;;;;;6273532;28;20017;-78
2022/06/03 03:47:15;;;;;;;7.65;4.05;;;;;;;;;;6273475;28;20266;-78
2022/06/03 03:50:36;;;;;;;9.80;4.97;;;;;;;;;;6270115;28;20020;-78
2022/06/03 03:53:58;;;;;;;8.52;4.82;;;;;;;;;;6233582;28;20032;-78
2022/06/03 03:56:59;;;;;;;8.40;4.60;;;;;;;;;;6274658;28;20020;-78
2022/06/03 04:00:02;;;;;;;5.93;4.13;;;;;;;;;;6272457;28;20013;-78
2022/06/03 04:03:22;;;;;;;7.50;4.38;;;;;;;;;;6273544;28;20252;-78
2022/06/03 04:06:39;;;;;;;7.13;4.22;;;;;;;;;;6271532;28;20023;-78
2022/06/03 04:10:02;;;;;;;7.30;4.50;;;;;;;;;;6269390;28;20020;-78
2022/06/03 04:13:06;;;;;;;8.80;5.40;;;;;;;;;;6267801;28;20492;-78
2022/06/03 04:16:09;;;;;;;8.23;3.90;;;;;;;;;;6271140;28;20066;-78
2022/06/03 04:19:28;;;;;;;8.52;3.78;;;;;;;;;;6266315;28;20044;-78
2022/06/03 04:22:47;;;;;;;6.63;4.30;;;;;;;;;;6260292;28;20427;-78
2022/06/03 04:26:06;;;;;;;5.38;4.03;;;;;;;;;;6266752;28;20634;-78
2022/06/03 04:29:34;;;;;;;9.23;4.65;;;;;;;;;;6271254;28;20446;-78
2022/06/03 04:32:53;;;;;;;7.68;4.40;;;;;;;;;;6265260;28;20473;-78
2022/06/03 04:35:59;;;;;;;7.15;4.78;;;;;;;;;;6262777;28;20480;-78
2022/06/03 04:39:18;;;;;;;5.18;3.90;;;;;;;;;;6263934;28;20377;-78
2022/06/03 04:42:19;;;;;;;5.50;3.90;;;;;;;;;;6262948;28;20206;-78
2022/06/03 04:45:38;;;;;;;8.18;3.42;;;;;;;;;;6266772;28;20029;-79
2022/06/03 04:48:59;;;;;;;4.82;3.10;;;;;;;;;;6264694;28;20047;-78
2022/06/03 04:51:59;;;;;;;13.40;3.90;;;;;;;;;;6268928;28;20044;-78
2022/06/03 04:55:12;;;;;;;6.53;3.47;;;;;;;;;;6272001;28;20033;-79
2022/06/03 04:58:24;;;;;;;4.30;3.00;;;;;;;;;;6279485;28;20276;-78
2022/06/03 05:01:43;;;;;;;5.72;2.50;;;;;;;;;;6277753;28;20096;-79
2022/06/03 05:05:02;;;;;;;3.50;2.55;;;;;;;;;;6260274;28;20079;-78
2022/06/03 05:08:21;;;;;;;4.30;2.30;;;;;;;;;;6260547;28;20026;-78
2022/06/03 05:11:27;;;;;;;3.58;2.58;;;;;;;;;;6260382;28;20479;-78
2022/06/03 05:14:51;;;;;;;3.50;2.42;;;;;;;;;;6267157;28;20074;-78
2022/06/03 05:18:09;;;;;;;6.13;3.28;;;;;;;;;;6257145;28;20029;-79
2022/06/03 05:21:31;;;;;;;6.07;2.42;;;;;;;;;;6263238;28;20458;-78
2022/06/03 05:24:34;;;;;;;2.63;2.00;;;;;;;;;;6263638;28;20023;-78
2022/06/03 05:27:53;;;;;;;3.47;2.20;;;;;;;;;;6266049;28;20025;-78
2022/06/03 05:30:53;;;;;;;4.00;2.65;;;;;;;;;;6258854;28;20025;-78
2022/06/03 05:34:12;;;;;;;5.80;2.20;;;;;;;;;;6285201;28;20068;-78
2022/06/03 05:37:19;;;;;;;4.55;3.00;;;;;;;;;;6271472;28;20032;-78
2022/06/03 05:40:28;;;;;;;3.42;2.05;;;;;;;;;;6263281;28;20025;-78
2022/06/03 05:43:47;;;;;;;5.72;1.67;;;;;;;;;;6267066;28;20020;-78
2022/06/03 05:46:58;;;;;;;5.32;2.55;;;;;;;;;;6266946;28;20018;-76
2022/06/03 05:50:04;;;;;;;3.28;1.92;;;;;;;;;;6265343;28;20017;-76
2022/06/03 05:53:04;;;;;;;4.18;2.10;;;;;;;;;;6255629;28;20496;-77
2022/06/03 05:56:23;;;;;;;2.47;1.60;;;;;;;;;;6257108;28;20028;-77
2022/06/03 05:59:36;;;;;;;5.95;1.42;;;;;;;;;;6272026;28;20108;-77
2022/06/03 06:02:40;;;;;;;2.88;1.55;;;;;;;;;;6258165;28;20015;-77
2022/06/03 06:05:41;;;;;;;4.18;1.20;;;;;;;;;;6258730;28;20025;-77
2022/06/03 06:08:56;;;;;;;2.70;1.37;;;;;;;;;;6271521;28;20021;-77
2022/06/03 06:11:59;;;;;;;1.98;1.50;;;;;;;;;;6264504;28;20488;-77
2022/06/03 06:15:15;;;;;;;1.45;1.27;;;;;;;;;;6261792;28;20017;-77
2022/06/03 06:18:22;;;;;;;3.25;1.40;;;;;;;;;;6259394;28;20021;-76
2022/06/03 06:21:22;;;;;;;4.63;1.48;;;;;;;;;;6264784;28;20102;-77
2022/06/03 06:24:22;;;;;;;;;;;;;;;;;;6258819;28;20065;-77
2022/06/03 06:27:41;;;;;;;2.53;1.50;;;;;;;;;;6266008;28;19909;-79
2022/06/03 06:31:00;;;;;;;5.45;1.55;;;;;;;;;;6263833;28;20024;-76
2022/06/03 06:34:10;;;;;;;3.55;1.33;;;;;;;;;;6262427;28;20017;-76
2022/06/03 06:37:34;;;;;;;7.35;1.10;;;;;;;;;;6266998;28;20032;-76
2022/06/03 06:40:38;;;;;;;1.35;1.10;;;;;;;;;;6260347;28;20027;-77
2022/06/03 06:44:11;;;;;;;1.60;0.90;;;;;;;;;;6266468;28;20560;-78
2022/06/03 06:47:17;;;;;;;4.57;1.10;;;;;;;;;;6239038;28;20484;-77
2022/06/03 06:50:17;;;;;;;1.60;1.30;;;;;;;;;;6271221;28;20021;-77
2022/06/03 06:53:20;;;;;;;1.33;0.97;;;;;;;;;;6281601;28;20021;-78
2022/06/03 06:56:30;;;;;;;1.52;0.98;;;;;;;;;;6275018;28;20412;-78
2022/06/03 06:59:38;;;;;;;1.25;1.10;;;;;;;;;;6278579;28;20025;-78
2022/06/03 07:02:57;;;;;;;1.25;0.90;;;;;;;;;;6271321;28;20022;-77
2022/06/03 07:06:06;;;;;;;1.58;1.10;;;;;;;;;;6277480;28;20017;-76
2022/06/03 07:09:24;;;;;;;1.92;0.98;;;;;;;;;;6269481;28;20028;-77
2022/06/03 07:12:29;;;;;;;1.73;0.93;;;;;;;;;;6267043;28;20041;-78
2022/06/03 07:15:39;;;;;;;2.65;1.08;;;;;;;;;;6246930;28;20037;-77
2022/06/03 07:22:11;;;;;;;1.00;0.90;;;;;;;;;;6264879;28;20216;-77
2022/06/03 07:25:20;;;;;;;2.60;1.30;;;;;;;;;;6262354;28;20017;-79
2022/06/03 07:28:47;;;;;;;3.05;1.17;;;;;;;;;;6264360;28;20655;-77
2022/06/03 07:31:56;;;;;;;2.50;1.00;;;;;;;;;;6273285;28;20052;-77
2022/06/03 07:35:04;;;;;;;2.63;1.30;;;;;;;;;;6272235;28;20013;-77
2022/06/03 07:38:14;;;;;;;1.83;1.30;;;;;;;;;;6272475;28;20049;-77
2022/06/03 07:41:26;;;;;;;1.85;1.50;;;;;;;;;;6263637;28;20017;-77
2022/06/03 07:44:34;;;;;;;2.97;1.65;;;;;;;;;;6262699;28;20080;-77
2022/06/03 07:47:34;;;;;;;2.53;1.27;;;;;;;;;;6283009;28;20025;-78
2022/06/03 07:50:36;;;;;;;2.80;1.30;;;;;;;;;;6273493;28;20056;-77
2022/06/03 07:53:45;;;;;;;2.13;1.40;;;;;;;;;;6273970;28;20102;-77
2022/06/03 07:56:46;;;;;;;2.45;1.63;;;;;;;;;;6264836;28;20388;-77
2022/06/03 07:59:46;;;;;;;1.27;1.17;;;;;;;;;;6274264;28;20020;-77
2022/06/03 08:02:59;;;;;;;1.38;1.20;;;;;;;;;;6279629;28;20476;-77
2022/06/03 08:06:01;;;;;;;1.77;1.50;;;;;;;;;;6273150;28;20024;-78
2022/06/03 08:12:27;;;;;;;1.10;1.00;;;;;;;;;;6259810;28;20143;-77
2022/06/03 08:15:35;;;;;;;5.75;1.30;;;;;;;;;;6258780;28;20025;-77
2022/06/03 08:18:40;;;;;;;1.75;1.40;;;;;;;;;;6271467;28;20061;-77
2022/06/03 08:21:43;;;;;;;4.43;1.35;;;;;;;;;;6268799;28;20045;-77
2022/06/03 08:24:47;;;;;;;2.15;1.90;;;;;;;;;;6268110;28;20079;-77
2022/06/03 08:27:47;;;;;;;3.60;1.38;;;;;;;;;;6266598;28;20476;-77
2022/06/03 08:30:47;;;;;;;;;;;;;;;;;;6264745;28;20046;-77
2022/06/03 08:33:49;;;;;;;5.15;1.40;;;;;;;;;;6278134;28;19904;-77
2022/06/03 08:36:50;;;;;;;3.85;1.63;;;;;;;;;;6256134;28;20794;-77
2022/06/03 08:39:50;;;;;;;;;;;;;;;;;;6262988;28;20017;-77
2022/06/03 08:42:59;;;;;;;2.90;1.58;;;;;;;;;;6261879;28;19909;-77
2022/06/03 08:46:18;;;;;;;3.67;1.60;;;;;;;;;;6268886;28;20064;-77
2022/06/03 08:49:20;;;;;;;2.17;1.70;;;;;;;;;;6266351;28;20060;-78
2022/06/03 08:52:24;;;;;;;2.85;1.40;;;;;;;;;;6268978;28;20021;-77
2022/06/03 08:55:24;;;;;;;1.60;1.45;;;;;;;;;;6266677;28;20017;-77
2022/06/03 08:58:30;;;;;;;4.33;1.53;;;;;;;;;;6268288;28;20034;-77
2022/06/03 09:01:30;;;;;;;3.58;1.67;;;;;;;;;;6265870;28;20031;-78
2022/06/03 09:04:34;;;;;;;1.60;1.47;;;;;;;;;;6267036;28;20992;-77
2022/06/03 09:07:39;;;;;;;3.15;1.40;;;;;;;;;;6264993;28;20021;-78
2022/06/03 09:10:41;;;;;;;4.30;1.70;;;;;;;;;;6269125;28;20035;-77
2022/06/03 09:13:54;;;;;;;5.93;1.70;;;;;;;;;;6274768;28;20017;-77
2022/06/03 09:17:03;;;;;;;5.45;1.73;;;;;;;;;;6267479;28;20033;-77
2022/06/03 09:20:10;;;;;;;4.57;1.55;;;;;;;;;;6264885;28;20049;-77
2022/06/03 09:23:12;;;;;;;3.92;1.95;;;;;;;;;;6263346;28;20034;-78
2022/06/03 09:26:28;;;;;;;2.38;1.70;;;;;;;;;;6258880;28;20461;-78
2022/06/03 09:29:28;;;;;;;2.53;1.42;;;;;;;;;;6258033;28;20068;-78
2022/06/03 09:32:31;;;;;;;2.23;1.50;;;;;;;;;;6261208;28;20035;-78
2022/06/03 09:35:34;;;;;;;2.70;1.40;;;;;;;;;;6259619;28;20029;-78
2022/06/03 09:38:54;;;;;;;1.85;1.50;;;;;;;;;;6255613;28;20025;-78
2022/06/03 09:41:57;;;;;;;2.13;1.30;;;;;;;;;;6248390;28;20029;-77
2022/06/03 09:44:59;;;;;;;2.78;1.63;;;;;;;;;;6256738;28;20021;-78
2022/06/03 09:48:00;;;;;;;5.80;1.67;;;;;;;;;;6262283;28;20172;-78
2022/06/03 09:51:00;;;;;;;;;;;;;;;;;;6259302;28;20031;-78
2022/06/03 09:54:01;;;;;;;3.22;1.50;;;;;;;;;;6267169;28;19909;-77
2022/06/03 09:57:07;;;;;;;3.90;1.90;;;;;;;;;;6270936;28;20034;-77
2022/06/03 10:00:15;;;;;;;3.38;1.75;;;;;;;;;;6261830;28;20368;-77
2022/06/03 10:03:16;;;;;;;4.38;1.10;;;;;;;;;;6275498;28;20123;-78
2022/06/03 10:13:14;;;;;;;5.03;2.42;;;;;;;;;;6212341;28;20037;-78
2022/06/03 10:16:15;;;;;;;2.47;1.57;;;;;;;;;;6218753;28;20034;-78
2022/06/03 10:19:15;;;;;;;2.47;1.77;;;;;;;;;;6257933;28;20433;-77
2022/06/03 10:22:16;;;;;;;3.20;1.80;;;;;;;;;;6269254;28;20140;-78
2022/06/03 10:25:16;;;;;;;3.50;2.10;;;;;;;;;;6259783;28;20080;-78
2022/06/03 10:28:18;;;;;;;5.70;2.30;;;;;;;;;;6260343;28;20336;-78
2022/06/03 10:31:19;;;;;;;4.95;1.77;;;;;;;;;;6266363;28;20029;-77
2022/06/03 10:34:24;;;;;;;4.03;1.67;;;;;;;;;;6270929;28;20473;-78
2022/06/03 10:37:25;;;;;;;2.58;1.52;;;;;;;;;;6269300;28;20047;-78
2022/06/03 10:40:26;;;;;;;4.65;1.70;;;;;;;;;;6268280;28;20393;-78
2022/06/03 10:43:33;;;;;;;5.75;2.03;;;;;;;;;;6260902;28;20060;-78
2022/06/03 10:46:33;;;;;;;4.28;1.70;;;;;;;;;;6263846;28;20029;-78
2022/06/03 10:49:48;;;;;;;2.07;1.77;;;;;;;;;;6266105;28;20048;-78
2022/06/03 11:03:27;;;;;;;5.03;1.70;;;;;;;;;;6232909;28;20036;-78
2022/06/03 11:06:38;;;;;;;2.05;1.65;;;;;;;;;;6267409;28;20028;-78
2022/06/03 11:09:52;;;;;;;3.13;1.40;;;;;;;;;;6262647;28;20052;-78
2022/06/03 11:12:57;;;;;;;2.70;1.52;;;;;;;;;;6259876;28;20052;-78
2022/06/03 11:16:11;;;;;;;3.38;1.30;;;;;;;;;;6271325;28;20389;-78
2022/06/03 11:19:20;;;;;;;4.63;1.42;;;;;;;;;;6273809;28;20500;-78
2022/06/03 11:22:24;;;;;;;4.82;1.60;;;;;;;;;;6269558;28;20481;-78
2022/06/03 11:25:28;;;;;;;2.70;1.85;;;;;;;;;;6267349;28;20024;-78
2022/06/03 11:28:31;;;;;;;1.42;1.33;;;;;;;;;;6285773;28;20071;-78
2022/06/03 11:31:35;;;;;;;2.42;1.73;;;;;;;;;;6272396;28;20025;-78
2022/06/03 11:34:38;;;;;;;1.50;1.40;;;;;;;;;;6264888;28;20025;-78
2022/06/03 11:37:40;;;;;;;2.92;1.60;;;;;;;;;;6268371;28;20027;-78
2022/06/03 11:40:44;;;;;;;2.70;1.83;;;;;;;;;;6267497;28;20024;-77
2022/06/03 11:43:48;;;;;;;1.77;1.67;;;;;;;;;;6268192;28;20021;-78
2022/06/03 11:46:53;;;;;;;3.28;1.40;;;;;;;;;;6272912;28;20047;-78
2022/06/03 11:49:53;;;;;;;2.88;1.90;;;;;;;;;;6270645;28;20476;-76
2022/06/03 11:52:55;;;;;;;1.70;1.47;;;;;;;;;;6269655;28;20028;-77
2022/06/03 11:56:01;;;;;;;2.05;1.50;;;;;;;;;;6272775;28;20021;-77
2022/06/03 11:59:09;;;;;;;7.45;4.95;;;;;;;;;;6265502;28;20483;-77
2022/06/03 12:02:28;;;;;;;2.72;1.58;;;;;;;;;;6273102;28;20017;-76
2022/06/03 12:05:32;;;;;;;3.33;1.50;;;;;;;;;;6272672;28;20025;-77
2022/06/03 12:08:38;;;;;;;1.63;1.50;;;;;;;;;;6265028;28;20040;-77
2022/06/03 12:15:25;;;;;;;4.80;2.60;;;;;;;;;;6270997;28;20021;-77
2022/06/03 12:18:31;;;;;;;8.05;1.95;;;;;;;;;;6269855;28;20029;-77
2022/06/03 12:21:31;;;;;;;2.83;1.60;;;;;;;;;;6281923;28;20095;-77
2022/06/03 12:24:32;;;;;;;3.57;1.87;;;;;;;;;;6269195;28;20542;-76
2022/06/03 12:27:36;;;;;;;6.27;1.67;;;;;;;;;;6263605;28;20021;-76
2022/06/03 12:30:41;;;;;;;2.80;1.65;;;;;;;;;;6255184;28;20035;-77
2022/06/03 12:33:54;;;;;;;2.17;1.60;;;;;;;;;;6257420;28;20423;-77
2022/06/03 12:37:00;;;;;;;1.48;1.38;;;;;;;;;;6258105;28;20032;-77
2022/06/03 12:40:00;;;;;;;2.50;1.77;;;;;;;;;;6255230;28;20028;-78
2022/06/03 12:43:00;;;;;;;;;;;;;;;;;;6259393;28;20523;-77
2022/06/03 12:46:06;;;;;;;3.83;1.75;;;;;;;;;;6264345;28;20399;-77
2022/06/03 12:49:16;;;;;;;3.72;1.73;;;;;;;;;;6255191;28;20458;-78
2022/06/03 12:52:19;;;;;;;3.05;1.55;;;;;;;;;;6260995;28;20025;-78
2022/06/03 12:55:28;;;;;;;9.10;1.88;;;;;;;;;;6253807;28;20029;-78
2022/06/03 12:58:47;;;;;;;1.45;1.35;;;;;;;;;;6265242;28;20426;-78
2022/06/03 13:01:51;;;;;;;3.13;1.50;;;;;;;;;;6260316;28;20025;-78
2022/06/03 13:04:54;;;;;;;2.58;1.55;;;;;;;;;;6263701;28;20029;-77
2022/06/03 13:07:57;;;;;;;3.20;1.88;;;;;;;;;;6261412;28;20035;-77
2022/06/03 13:11:08;;;;;;;2.38;1.45;;;;;;;;;;6269518;28;20093;-77
2022/06/03 13:14:28;;;;;;;3.85;1.52;;;;;;;;;;6270421;28;20412;-78
2022/06/03 13:17:47;;;;;;;2.10;1.70;;;;;;;;;;6270626;28;20041;-78
2022/06/03 13:20:49;;;;;;;3.28;1.35;;;;;;;;;;6277600;28;20511;-79
2022/06/03 13:23:49;;;;;;;13.07;1.58;;;;;;;;;;6262290;28;20408;-77
2022/06/03 13:27:10;;;;;;;1.83;1.53;;;;;;;;;;6269741;28;20119;-78
2022/06/03 13:30:11;;;;;;;4.22;1.50;;;;;;;;;;6250382;28;20060;-77
2022/06/03 13:33:19;;;;;;;2.65;1.60;;;;;;;;;;6265426;28;20115;-78
2022/06/03 13:36:30;;;;;;;2.47;1.48;;;;;;;;;;6263470;28;20164;-78
2022/06/03 13:39:30;;;;;;;4.13;1.35;;;;;;;;;;6258675;28;20032;-78
2022/06/03 13:42:57;;;;;;;1.60;1.50;;;;;;;;;;6262246;28;20381;-78
2022/06/03 13:46:02;;;;;;;6.43;1.90;;;;;;;;;;6262389;28;20052;-78
2022/06/03 13:49:11;;;;;;;2.47;1.70;;;;;;;;;;6266398;28;20414;-78
2022/06/03 13:52:14;;;;;;;5.18;2.00;;;;;;;;;;6263929;28;20028;-78
2022/06/03 13:55:25;;;;;;;4.45;1.70;;;;;;;;;;6254815;28;20024;-78
2022/06/03 13:58:30;;;;;;;2.70;1.20;;;;;;;;;;6254112;28;20037;-78
2022/06/03 14:01:33;;;;;;;1.48;1.20;;;;;;;;;;6259675;28;20605;-77
2022/06/03 14:04:44;;;;;;;3.80;1.77;;;;;;;;;;6266955;28;20094;-78
2022/06/03 14:07:54;;;;;;;1.98;1.40;;;;;;;;;;6265311;28;20032;-78
2022/06/03 14:11:01;;;;;;;5.93;1.93;;;;;;;;;;6268309;28;20028;-77
2022/06/03 14:14:07;;;;;;;3.15;1.65;;;;;;;;;;6255998;28;20493;-78
2022/06/03 14:17:12;;;;;;;1.98;1.60;;;;;;;;;;6265724;28;20623;-76
2022/06/03 14:20:21;;;;;;;3.63;1.50;;;;;;;;;;6264218;28;20070;-77
2022/06/03 14:23:29;;;;;;;2.53;1.70;;;;;;;;;;6264676;28;20043;-77
2022/06/03 14:26:36;;;;;;;2.88;1.55;;;;;;;;;;6267725;28;20028;-78
2022/06/03 14:29:53;;;;;;;1.83;1.65;;;;;;;;;;6266730;28;20017;-77
2022/06/03 14:32:56;;;;;;;4.90;1.42;;;;;;;;;;6254464;28;20072;-78
2022/06/03 14:35:58;;;;;;;3.45;1.63;;;;;;;;;;6257892;28;20036;-78
2022/06/03 14:39:01;;;;;;;2.88;1.80;;;;;;;;;;6270181;28;20056;-78
2022/06/03 14:42:04;;;;;;;6.32;1.70;;;;;;;;;;6270752;28;20021;-77
2022/06/03 14:45:06;;;;;;;3.60;1.63;;;;;;;;;;6273325;28;20532;-77
2022/06/03 14:48:08;;;;;;;2.20;1.45;;;;;;;;;;6271484;28;20055;-77
2022/06/03 14:51:11;;;;;;;4.07;2.00;;;;;;;;;;6274981;28;20025;-78
2022/06/03 14:54:14;;;;;;;3.90;1.55;;;;;;;;;;6274809;28;20031;-77
2022/06/03 14:57:33;;;;;;;2.05;1.27;;;;;;;;;;6275020;28;20094;-77
2022/06/03 15:00:34;;;;;;;4.93;1.70;;;;;;;;;;6273765;28;20059;-77
2022/06/03 15:03:34;;;;;;;4.53;1.97;;;;;;;;;;6273967;28;20082;-77
2022/06/03 15:06:44;;;;;;;3.53;1.60;;;;;;;;;;6277848;28;20016;-77
2022/06/03 15:09:47;;;;;;;3.67;1.70;;;;;;;;;;6275495;28;20052;-77
2022/06/03 15:12:52;;;;;;;6.35;2.25;;;;;;;;;;6277294;28;20075;-77
2022/06/03 15:15:53;;;;;;;2.63;1.95;;;;;;;;;;6277438;28;20633;-77
2022/06/03 15:18:53;;;;;;;2.17;1.55;;;;;;;;;;6274916;28;20061;-78
2022/06/03 15:21:54;;;;;;;3.33;1.70;;;;;;;;;;6274704;28;20049;-77
2022/06/03 15:25:00;;;;;;;2.78;1.90;;;;;;;;;;6275692;28;20494;-77
2022/06/03 15:28:04;;;;;;;3.65;2.53;;;;;;;;;;6273960;28;20378;-77
2022/06/03 15:31:06;;;;;;;11.32;3.60;;;;;;;;;;6279919;28;20485;-77
2022/06/03 15:34:10;;;;;;;11.23;3.80;;;;;;;;;;6274624;28;20512;-77
2022/06/03 15:37:11;;;;;;;4.13;2.17;;;;;;;;;;6274381;28;20024;-77
2022/06/03 15:40:11;;;;;;;;;;;;;;;;;;6268944;28;20461;-77
2022/06/03 15:43:14;;;;;;;4.93;1.80;;;;;;;;;;6274781;28;19939;-77
2022/06/03 15:46:31;;;;;;;3.22;2.20;;;;;;;;;;6269104;28;20104;-77
2022/06/03 15:49:32;;;;;;;5.95;1.92;;;;;;;;;;6273534;28;20021;-77
2022/06/03 15:52:42;;;;;;;1.38;1.23;;;;;;;;;;6271856;28;20036;-78
2022/06/03 15:55:49;;;;;;;5.35;2.47;;;;;;;;;;6269495;28;20053;-76
2022/06/03 15:59:22;;;;;;;3.83;1.70;;;;;;;;;;6271977;28;20703;-77
2022/06/03 16:02:24;;;;;;;5.55;2.58;;;;;;;;;;6238612;28;20056;-77
2022/06/03 16:05:47;;;;;;;3.15;1.80;;;;;;;;;;6273073;28;20431;-76
2022/06/03 16:08:53;;;;;;;3.50;1.85;;;;;;;;;;6271976;28;20103;-76
2022/06/03 16:12:11;;;;;;;3.40;1.98;;;;;;;;;;6268598;28;20388;-76
2022/06/03 16:15:17;;;;;;;5.45;2.47;;;;;;;;;;6266718;28;20389;-77
2022/06/03 16:18:25;;;;;;;5.20;2.33;;;;;;;;;;6274640;28;20020;-78
2022/06/03 16:21:29;;;;;;;4.97;2.42;;;;;;;;;;6272977;28;20045;-76
2022/06/03 16:24:43;;;;;;;2.40;1.67;;;;;;;;;;6273184;28;20029;-76
2022/06/03 16:27:49;;;;;;;4.93;1.73;;;;;;;;;;6273331;28;20044;-76
2022/06/03 16:30:57;;;;;;;4.85;2.15;;;;;;;;;;6267552;28;20028;-76
2022/06/03 16:34:21;;;;;;;8.38;3.05;;;;;;;;;;6273017;28;20020;-78
2022/06/03 16:37:30;;;;;;;5.20;3.00;;;;;;;;;;6267337;28;20024;-77
2022/06/03 16:40:42;;;;;;;4.45;2.67;;;;;;;;;;6271990;28;20009;-77
2022/06/03 16:44:02;;;;;;;5.70;2.78;;;;;;;;;;6264882;28;20047;-77
2022/06/03 16:47:09;;;;;;;6.03;1.85;;;;;;;;;;6272612;28;20041;-77
2022/06/03 16:50:09;;;;;;;3.08;2.15;;;;;;;;;;6270578;28;20036;-77
2022/06/03 16:53:14;;;;;;;5.77;3.10;;;;;;;;;;6272140;28;20025;-78
2022/06/03 16:56:16;;;;;;;6.05;3.90;;;;;;;;;;6268481;28;20028;-78
2022/06/03 16:59:18;;;;;;;9.73;3.20;;;;;;;;;;6257826;28;20384;-77
2022/06/03 17:02:20;;;;;;;11.23;3.83;;;;;;;;;;6269763;28;20016;-77
2022/06/03 17:05:21;;;;;;;8.43;3.17;;;;;;;;;;6269621;28;20021;-78
2022/06/03 17:08:48;;;;;;;7.63;3.10;;;;;;;;;;6270302;28;20504;-78
2022/06/03 17:11:48;;;;;;;7.15;2.55;;;;;;;;;;6265048;28;20425;-78
2022/06/03 17:14:49;;;;;;;2.97;2.23;;;;;;;;;;6270232;28;20082;-77
2022/06/03 17:17:50;;;;;;;2.55;1.63;;;;;;;;;;6262708;28;20020;-77
2022/06/03 17:21:16;;;;;;;6.23;2.30;;;;;;;;;;6271674;28;20075;-77
2022/06/03 17:24:36;;;;;;;5.53;2.40;;;;;;;;;;6265910;28;20025;-77
2022/06/03 17:27:48;;;;;;;3.08;2.10;;;;;;;;;;6270626;28;20110;-77
2022/06/03 17:30:51;;;;;;;6.88;2.92;;;;;;;;;;6270178;28;20044;-77
2022/06/03 17:33:51;;;;;;;5.50;2.53;;;;;;;;;;6270057;28;20032;-77
2022/06/03 17:36:55;;;;;;;2.90;1.87;;;;;;;;;;6267154;28;20665;-77
2022/06/03 17:40:20;;;;;;;4.50;2.80;;;;;;;;;;6268792;28;20020;-78
2022/06/03 17:43:26;;;;;;;3.38;2.22;;;;;;;;;;6222225;28;20028;-77
2022/06/03 17:46:32;;;;;;;4.82;2.45;;;;;;;;;;6263328;28;20377;-77
2022/06/03 17:49:52;;;;;;;6.18;3.35;;;;;;;;;;6257029;28;20037;-77
2022/06/03 17:56:22;;;;;;;4.38;2.17;;;;;;;;;;6268482;28;20076;-77
2022/06/03 17:59:55;;;;;;;4.60;2.70;;;;;;;;;;6267054;28;20025;-77
2022/06/03 18:03:01;;;;;;;5.22;2.58;;;;;;;;;;6215582;28;20033;-77
2022/06/03 18:06:07;;;;;;;4.60;2.97;;;;;;;;;;6268635;28;20062;-77
2022/06/03 18:09:24;;;;;;;4.90;2.45;;;;;;;;;;6258410;28;20025;-77
2022/06/03 18:12:25;;;;;;;5.60;2.90;;;;;;;;;;6259796;28;20036;-76
2022/06/03 18:15:28;;;;;;;3.50;2.60;;;;;;;;;;6271390;28;20086;-77
2022/06/03 18:18:29;;;;;;;2.97;2.15;;;;;;;;;;6264949;28;20029;-77
2022/06/03 18:21:30;;;;;;;;;;;;;;;;;;6269463;28;20054;-77
2022/06/03 18:24:31;;;;;;;5.90;2.72;;;;;;;;;;6266583;28;19931;-77
2022/06/03 18:27:39;;;;;;;6.90;2.80;;;;;;;;;;6277321;28;20037;-78
2022/06/03 18:30:53;;;;;;;3.47;2.40;;;;;;;;;;6264390;28;20116;-78
2022/06/03 18:34:12;;;;;;;2.38;2.08;;;;;;;;;;6264027;28;20025;-78
2022/06/03 18:37:25;;;;;;;5.03;2.63;;;;;;;;;;6257170;28;20037;-77
2022/06/03 18:40:35;;;;;;;6.10;3.03;;;;;;;;;;6266369;28;20108;-77
2022/06/03 18:43:39;;;;;;;4.38;2.40;;;;;;;;;;6264003;28;20095;-77
2022/06/03 18:46:48;;;;;;;3.15;2.30;;;;;;;;;;6267832;28;20039;-78
2022/06/03 18:50:09;;;;;;;3.85;2.60;;;;;;;;;;6264794;28;20018;-77
2022/06/03 18:53:35;;;;;;;6.27;2.80;;;;;;;;;;6268444;28;20032;-77
2022/06/03 18:56:42;;;;;;;4.78;2.55;;;;;;;;;;6272084;28;20263;-77
2022/06/03 19:00:00;;;;;;;5.85;2.85;;;;;;;;;;6260652;28;20028;-76
2022/06/03 19:03:19;;;;;;;3.60;2.50;;;;;;;;;;6274693;28;20033;-80
2022/06/03 19:06:33;;;;;;;6.68;3.10;;;;;;;;;;6281130;28;20041;-77
2022/06/03 19:09:34;;;;;;;7.97;2.83;;;;;;;;;;6271103;28;20111;-78
2022/06/03 19:12:53;;;;;;;5.47;3.00;;;;;;;;;;6275600;28;20033;-78
2022/06/03 19:15:56;;;;;;;3.60;2.47;;;;;;;;;;6266624;28;20036;-77
2022/06/03 19:19:05;;;;;;;7.88;3.78;;;;;;;;;;6264290;28;20391;-77
2022/06/03 19:22:06;;;;;;;4.90;2.88;;;;;;;;;;6264205;28;20072;-78
2022/06/03 19:25:09;;;;;;;7.17;3.47;;;;;;;;;;6260622;28;20025;-78